Portada
METAR-TAF:

METAR-TAF

Aeroports :

Jamshedpur, Índia

latitud: 22-48-49N, longitud: 086-10-05E, altitud: 146 m

Observació

L'informe es va fer fa 6 hores i 43 minuts, a les 12:00 UTC
Vent 4 kt del Est
Temperatura 30°C
Humitat 75%
Pressió 991 hPa
Visibilitat: 4000 m
Núvols disperses a una alçada de 1500 ft
Núvols disperses a una alçada de 2500 ft
Escasses núvols a una alçada de 3000 ft, Cumulonimbus.
Cel ennuvolat a una alçada de 10000 ft
calitja

METAR: VEJS 231200Z 09004KT 4000 HZ SCT015 SCT025 FEW030CB BKN100 30/25 Q0991

Hora: 00:13 (18:43 UTC)

Pronòstic

L'informe es va fer fa 7 hores i 43 minuts, a les 11:00 UTC
Pronòstic vàlid del 23 a les 12 UTC al 23 a les 21 UTC
Vent 5 kt del Nord-Est
Visibilitat: 3000 m
Núvols disperses a una alçada de 1500 ft
Escasses núvols a una alçada de 3000 ft, Cumulonimbus.
Cel ennuvolat a una alçada de 9000 ft
pluja, calitja

TAF: VEJS 231100Z 2312/2321 05005KT 3000 -RA HZ SCT015 FEW030CB BKN090

Observacions i pronòstics meteorològics de més de 4000 aeroports (METAR i TAF).

Les estacions disponibles són els punts grocs i vermells al mapa.

Posi el ratolí al punt desitjat per veure el nom de l'estació.

Feu clic per veure les observacions i els pronòstics meteorològics.

Per canviar el mapa: feu clic els botons verds amb una creu de color negre per apropar; al botó verd amb un guió per allunyar la imatge; o en les fletxes verdes per a mapes adjacents.


METAR-TAF: